• Join FlightAware (Why Join?)
  • Login
  • US Flag 
04:17PM EDT


 

Airport Tracker/Info


-or-


 

Live Flight TrackerFlight Track Log ✈ N6251A ✈ 01-Sep-2013 ✈ 47N - KPOU

Flight Track Log - Related Links

Times and Time Zones

All times are in EDT time to prevent confusion due to time zone crossing. See the N6251A flight status page for this flight to view local times or setup timezone preferences in your user account.

Time Position Orientation Groundspeed Altitude Reporting Facility
EDT Latitude Longitude Course Direction KTS MPH feet Rate Location/Type
07:28PM 40.5167 -74.6500 26° Northeast 94 108 3,400  Level New York TRACON
07:29PM 40.5333 -74.6833 303° West 128 147 3,900 300 Climbing New York TRACON
07:30PM 40.5667 -74.7167 323° Northwest 145 167 4,000  Climbing New York TRACON
07:31PM 40.6000 -74.7500 323° Northwest 154 177 4,000  Level New York TRACON
07:32PM 40.6333 -74.7333 21° North 153 176 4,000  Level New York TRACON
07:33PM 40.6667 -74.7167 21° North 148 170 4,000  Level New York TRACON
07:34PM 40.6351 -74.5278 26° Northeast  Level Estimated
07:34PM 40.7000 -74.7167 360° North 147 169 4,000  Level New York TRACON
07:35PM 40.7333 -74.7000 21° North 142 163 4,000  Level New York TRACON
07:36PM 40.7833 -74.6833 14° North 140 161 4,000  Level New York TRACON
07:37PM 40.8167 -74.6500 37° Northeast 142 163 4,000  Level New York TRACON
07:38PM 40.8500 -74.6333 21° North 143 165 4,000  Level New York TRACON
07:39PM 40.8833 -74.6167 21° North 144 166 4,000  Level New York TRACON
07:40PM 40.9333 -74.6000 14° North 146 168 4,000  Level New York TRACON
07:41PM 40.9667 -74.5833 21° North 143 165 4,000  Level New York TRACON
07:42PM 41.0000 -74.5667 21° North 144 166 4,000  Level New York TRACON
07:43PM 41.0333 -74.5500 21° North 145 167 4,000  Level New York TRACON
07:44PM 41.0667 -74.5333 21° North 146 168 4,000  Level New York TRACON
07:45PM 41.1167 -74.5167 14° North 148 170 4,000  Level New York TRACON
07:46PM 41.1500 -74.5000 21° North 148 170 4,000  Level New York TRACON
07:47PM 41.1833 -74.4833 21° North 147 169 4,000  Level New York TRACON
07:48PM 41.2333 -74.4667 14° North 147 169 4,000  Level New York TRACON
07:49PM 41.2667 -74.4333 37° Northeast 150 173 4,000  Level New York TRACON
07:50PM 41.2833 -74.4000 56° Northeast 150 173 4,000  Level New York TRACON
07:51PM 41.3167 -74.3667 37° Northeast 150 173 4,000  Level New York TRACON
07:52PM 41.3333 -74.3167 66° East 151 174 4,000  Level New York TRACON
07:53PM 41.3667 -74.2833 37° Northeast 150 173 4,000  Level New York TRACON
07:54PM 41.4000 -74.2333 48° Northeast 150 173 4,000  Level New York TRACON
07:55PM 41.4167 -74.1833 66° East 150 173 4,000  Level New York TRACON
07:56PM 41.4500 -74.1500 37° Northeast 149 171 4,000  Level New York TRACON
07:57PM 41.4833 -74.1167 37° Northeast 142 163 4,000  Level New York TRACON
07:58PM 41.5000 -74.0667 66° East 141 162 4,000  Level New York TRACON
07:59PM 41.5167 -74.0167 66° East 145 167 4,000  Level New York TRACON
08:00PM 41.5333 -73.9667 66° East 152 175 4,000  Level New York TRACON
08:01PM 41.5667 -73.9167 48° Northeast 152 175 4,000  Level New York TRACON
08:02PM 41.5833 -73.8667 66° East 152 175 4,000 -180 Level New York TRACON
08:03PM 41.6000 -73.8167 66° East 163 188 3,700 -480 Descending New York TRACON
08:04PM 41.6167 -73.7667 66° East 161 185 3,100 -360 Descending New York TRACON
08:05PM 41.6500 -73.7167 48° Northeast 147 169 3,000 -60 Descending New York TRACON
08:06PM 41.6667 -73.6667 66° East 144 166 3,000  Level New York TRACON
08:07PM 41.7000 -73.6333 37° Northeast 150 173 3,000  Level New York TRACON
08:08PM 41.7167 -73.6667 304° West 139 160 3,000 -60 Level New York TRACON
08:09PM 41.7333 -73.7000 304° West 144 166 2,900 -120 Descending New York TRACON
08:10PM 41.7167 -73.7333 236° Southwest 120 138 2,800 -240 Descending New York TRACON
08:11PM 41.7000 -73.7667 236° Southwest 121 139 2,500 -480 Descending New York TRACON
08:12PM 41.6833 -73.8000 236° Southwest 135 155 1,900 -780 Descending New York TRACON
08:13PM 41.6500 -73.8333 217° Southwest 125 144 1,100 -840 Descending New York TRACON
08:15PM 41.6167 -73.8833 255° West  Level FlightAware Approximate
08:22PM 41.6266 -73.8842 255° West  Level Estimated